createdAt,value
2018-11-13T00:00:15.965Z,0.00
2018-11-13T00:01:15.891Z,0.00
2018-11-13T00:02:15.802Z,0.00
2018-11-13T00:03:15.730Z,0.00
2018-11-13T00:04:15.644Z,0.00
2018-11-13T00:05:15.572Z,0.00
2018-11-13T00:06:15.484Z,0.00
2018-11-13T00:07:15.413Z,0.00
2018-11-13T00:08:15.327Z,0.00
2018-11-13T00:09:15.258Z,0.00
2018-11-13T00:10:15.175Z,0.00
2018-11-13T00:11:15.106Z,0.00
2018-11-13T00:12:15.016Z,0.00
2018-11-13T00:13:14.942Z,0.00
2018-11-13T00:14:14.849Z,0.00
2018-11-13T00:15:14.784Z,0.00
2018-11-13T00:16:14.693Z,0.00
2018-11-13T00:17:14.620Z,0.00
2018-11-13T00:18:14.532Z,0.00
2018-11-13T00:19:14.463Z,0.00
2018-11-13T00:20:14.370Z,0.00
2018-11-13T00:21:14.301Z,0.00
2018-11-13T00:22:14.213Z,0.00
2018-11-13T00:23:14.143Z,0.00
2018-11-13T00:24:14.055Z,0.00
2018-11-13T00:25:13.982Z,0.00
2018-11-13T00:26:13.896Z,0.00
2018-11-13T00:27:14.825Z,0.00
2018-11-13T00:28:13.738Z,0.00
2018-11-13T00:29:13.663Z,0.00
2018-11-13T00:30:13.579Z,0.00
2018-11-13T00:31:13.505Z,0.00
2018-11-13T00:32:13.422Z,0.00
2018-11-13T00:33:13.345Z,0.00
2018-11-13T00:34:13.263Z,0.00
2018-11-13T00:35:13.189Z,0.00
2018-11-13T00:36:13.101Z,0.00
2018-11-13T00:37:13.028Z,0.00
2018-11-13T00:38:12.941Z,0.00
2018-11-13T00:39:12.904Z,0.00
2018-11-13T00:40:12.782Z,0.00
2018-11-13T00:41:12.716Z,0.00
2018-11-13T00:42:12.623Z,0.00
2018-11-13T00:43:12.553Z,0.00
2018-11-13T00:44:12.468Z,0.00
2018-11-13T00:45:12.396Z,0.00
2018-11-13T00:46:12.304Z,0.00
2018-11-13T00:47:12.235Z,0.00
2018-11-13T00:48:12.208Z,0.00
2018-11-13T00:49:12.074Z,0.00
2018-11-13T00:50:11.987Z,0.00
2018-11-13T00:51:11.917Z,0.00
2018-11-13T00:52:11.828Z,0.00
2018-11-13T00:53:11.755Z,0.00
2018-11-13T00:54:11.671Z,0.00
2018-11-13T00:55:11.596Z,0.00
2018-11-13T00:56:11.508Z,0.00
2018-11-13T00:57:11.437Z,0.00
2018-11-13T00:58:11.347Z,0.00
2018-11-13T00:59:11.286Z,0.00
2018-11-13T01:00:11.196Z,0.00
2018-11-13T01:01:11.121Z,0.00
2018-11-13T01:02:11.032Z,0.00
2018-11-13T01:03:10.968Z,0.00
2018-11-13T01:04:10.874Z,0.00
2018-11-13T01:05:10.833Z,0.00
2018-11-13T01:06:10.713Z,0.00
2018-11-13T01:07:10.637Z,0.00
2018-11-13T01:08:10.553Z,0.00
2018-11-13T01:09:10.480Z,0.00
2018-11-13T01:10:10.399Z,0.00
2018-11-13T01:11:10.322Z,0.00
2018-11-13T01:12:10.234Z,0.00
2018-11-13T01:13:10.161Z,0.00
2018-11-13T01:14:10.071Z,0.00
2018-11-13T01:15:10.399Z,0.00
2018-11-13T01:16:09.918Z,0.00
2018-11-13T01:17:09.843Z,0.00
2018-11-13T01:18:09.756Z,0.00
2018-11-13T01:19:09.683Z,0.00
2018-11-13T01:20:09.596Z,0.00
2018-11-13T01:21:09.526Z,0.00
2018-11-13T01:22:09.438Z,0.00
2018-11-13T01:23:09.358Z,0.00
2018-11-13T01:24:09.285Z,0.00
2018-11-13T01:25:09.203Z,0.00
2018-11-13T01:26:09.123Z,0.00
2018-11-13T01:27:09.034Z,0.00
2018-11-13T01:28:08.971Z,0.00
2018-11-13T01:29:08.882Z,0.00
2018-11-13T01:30:08.806Z,0.00
2018-11-13T01:31:08.720Z,0.00
2018-11-13T01:32:08.652Z,0.00
2018-11-13T01:33:08.559Z,0.00
2018-11-13T01:34:08.489Z,0.00
2018-11-13T01:35:08.402Z,0.00
2018-11-13T01:36:08.332Z,0.00
2018-11-13T01:37:08.241Z,0.00
2018-11-13T01:38:08.168Z,0.00
2018-11-13T01:39:08.081Z,0.00
2018-11-13T01:40:08.017Z,0.00
2018-11-13T01:41:07.922Z,0.00
2018-11-13T01:42:07.851Z,0.00
2018-11-13T01:43:07.768Z,0.00
2018-11-13T01:44:07.696Z,0.00
2018-11-13T01:45:07.603Z,0.00
2018-11-13T01:46:07.534Z,0.00
2018-11-13T01:47:07.443Z,0.00
2018-11-13T01:48:07.812Z,0.00
2018-11-13T01:49:07.286Z,0.00
2018-11-13T01:50:07.215Z,0.00
2018-11-13T01:51:07.126Z,0.00
2018-11-13T01:52:07.053Z,0.00
2018-11-13T01:53:06.970Z,0.00
2018-11-13T01:54:06.898Z,0.00
2018-11-13T01:55:06.807Z,0.00
2018-11-13T01:56:06.733Z,0.00
2018-11-13T01:57:06.711Z,0.00
2018-11-13T01:58:06.572Z,0.00
2018-11-13T01:59:06.525Z,0.00
2018-11-13T02:00:06.416Z,0.00
2018-11-13T02:01:06.329Z,0.00
2018-11-13T02:02:06.257Z,0.00
2018-11-13T02:03:06.171Z,0.00
2018-11-13T02:04:06.100Z,0.00
2018-11-13T02:05:06.010Z,0.00
2018-11-13T02:06:05.936Z,0.00
2018-11-13T02:07:05.849Z,0.00
2018-11-13T02:08:05.776Z,0.00
2018-11-13T02:09:05.690Z,0.00
2018-11-13T02:10:05.617Z,0.00
2018-11-13T02:11:05.528Z,0.00
2018-11-13T02:12:05.460Z,0.00
2018-11-13T02:13:05.370Z,0.00
2018-11-13T02:14:05.298Z,0.00
2018-11-13T02:15:05.211Z,0.00
2018-11-13T02:16:05.140Z,0.00
2018-11-13T02:17:05.050Z,0.00
2018-11-13T02:18:04.976Z,0.00
2018-11-13T02:19:04.893Z,0.00
2018-11-13T02:20:04.827Z,0.00
2018-11-13T02:21:04.735Z,0.00
2018-11-13T02:22:04.658Z,0.00
2018-11-13T02:23:04.575Z,0.00
2018-11-13T02:24:04.502Z,0.00
2018-11-13T02:25:04.416Z,0.00
2018-11-13T02:26:04.344Z,0.00
2018-11-13T02:27:04.257Z,0.00
2018-11-13T02:28:04.184Z,0.00
2018-11-13T02:29:04.096Z,0.00
2018-11-13T02:30:04.031Z,0.00
2018-11-13T02:31:03.937Z,0.00
2018-11-13T02:32:03.866Z,0.00
2018-11-13T02:33:03.777Z,0.00
2018-11-13T02:34:03.704Z,0.00
2018-11-13T02:35:03.618Z,0.00
2018-11-13T02:36:03.547Z,0.00
2018-11-13T02:37:03.459Z,0.00
2018-11-13T02:38:03.388Z,0.00
2018-11-13T02:39:03.303Z,0.00
2018-11-13T02:40:03.228Z,0.00
2018-11-13T02:41:03.139Z,0.00
2018-11-13T02:42:03.066Z,0.00
2018-11-13T02:43:02.978Z,0.00
2018-11-13T02:44:02.911Z,0.00
2018-11-13T02:45:02.820Z,0.00
2018-11-13T02:46:02.749Z,0.00
2018-11-13T02:47:02.661Z,0.00
2018-11-13T02:48:02.588Z,0.00
2018-11-13T02:49:02.500Z,0.00
2018-11-13T02:50:02.434Z,0.00
2018-11-13T02:51:02.341Z,0.00
2018-11-13T02:52:02.272Z,0.00
2018-11-13T02:53:02.185Z,0.00
2018-11-13T02:54:02.110Z,0.00
2018-11-13T02:55:02.022Z,0.00
2018-11-13T02:56:01.951Z,0.00
2018-11-13T02:57:01.861Z,0.00
2018-11-13T02:58:01.797Z,0.00
2018-11-13T02:59:01.704Z,0.00
2018-11-13T03:00:01.632Z,0.00
2018-11-13T03:01:01.541Z,0.00
2018-11-13T03:02:01.474Z,0.00
2018-11-13T03:03:01.385Z,0.00
2018-11-13T03:04:01.314Z,0.00
2018-11-13T03:05:01.225Z,0.00
2018-11-13T03:06:01.155Z,0.00
2018-11-13T03:07:01.072Z,0.00
2018-11-13T03:08:00.993Z,0.00
2018-11-13T03:09:00.905Z,0.00
2018-11-13T03:10:00.833Z,0.00
2018-11-13T03:11:00.745Z,0.00
2018-11-13T03:12:00.677Z,0.00
2018-11-13T03:13:00.586Z,0.00
2018-11-13T03:14:00.514Z,0.00
2018-11-13T03:15:00.428Z,0.00
2018-11-13T03:16:00.356Z,0.00
2018-11-13T03:17:00.264Z,0.00
2018-11-13T03:18:00.193Z,0.00
2018-11-13T03:19:00.109Z,0.00
2018-11-13T03:20:00.036Z,0.00
2018-11-13T03:20:59.947Z,0.00
2018-11-13T03:21:59.877Z,0.00
2018-11-13T03:22:59.789Z,0.00
2018-11-13T03:23:59.715Z,0.00
2018-11-13T03:24:59.629Z,0.00
2018-11-13T03:25:59.560Z,0.00
2018-11-13T03:26:59.465Z,0.00
2018-11-13T03:27:59.398Z,0.00
2018-11-13T03:28:59.312Z,0.00
2018-11-13T03:29:59.244Z,0.00
2018-11-13T03:30:59.179Z,0.00
2018-11-13T03:31:59.077Z,0.00
2018-11-13T03:32:58.993Z,0.00
2018-11-13T03:33:58.919Z,0.00
2018-11-13T03:34:58.828Z,0.00
2018-11-13T03:35:58.759Z,0.00
2018-11-13T03:36:58.669Z,0.00
2018-11-13T03:37:58.598Z,0.00
2018-11-13T03:38:58.511Z,0.00
2018-11-13T03:39:58.436Z,0.00
2018-11-13T03:40:58.348Z,0.00
2018-11-13T03:41:58.279Z,0.00
2018-11-13T03:42:58.193Z,0.00
2018-11-13T03:43:58.119Z,0.00
2018-11-13T03:44:58.030Z,0.00
2018-11-13T03:45:57.958Z,0.00
2018-11-13T03:46:57.874Z,0.00
2018-11-13T03:47:57.806Z,0.00
2018-11-13T03:48:57.711Z,0.00
2018-11-13T03:49:57.641Z,0.00
2018-11-13T03:50:57.573Z,0.00
2018-11-13T03:51:57.482Z,0.00
2018-11-13T03:52:57.390Z,0.00
2018-11-13T03:53:57.318Z,0.00
2018-11-13T03:54:57.275Z,0.00
2018-11-13T03:55:57.159Z,0.00
2018-11-13T03:56:57.068Z,0.00
2018-11-13T03:57:56.996Z,0.00
2018-11-13T03:58:56.910Z,0.00
2018-11-13T03:59:56.838Z,0.00
2018-11-13T04:00:56.753Z,0.00
2018-11-13T04:01:56.679Z,0.00
2018-11-13T04:02:56.592Z,0.00
2018-11-13T04:03:56.520Z,0.00
2018-11-13T04:04:56.434Z,0.00
2018-11-13T04:05:56.357Z,0.00
2018-11-13T04:06:56.271Z,0.00
2018-11-13T04:07:56.204Z,0.00
2018-11-13T04:08:56.111Z,0.00
2018-11-13T04:09:56.041Z,0.00
2018-11-13T04:10:55.953Z,0.00
2018-11-13T04:11:55.885Z,0.00
2018-11-13T04:12:55.792Z,0.00
2018-11-13T04:13:55.723Z,0.00
2018-11-13T04:14:55.635Z,0.00
2018-11-13T04:15:55.562Z,0.00
2018-11-13T04:16:55.472Z,0.00
2018-11-13T04:17:55.399Z,0.00
2018-11-13T04:18:55.314Z,0.00
2018-11-13T04:19:55.239Z,0.00
2018-11-13T04:20:55.154Z,0.00
2018-11-13T04:21:55.084Z,0.00
2018-11-13T04:22:54.995Z,0.00
2018-11-13T04:23:54.925Z,0.00
2018-11-13T04:24:54.834Z,0.00
2018-11-13T04:25:54.760Z,0.00
2018-11-13T04:26:54.845Z,0.00
2018-11-13T04:27:54.692Z,0.00
2018-11-13T04:28:54.521Z,0.00
2018-11-13T04:29:54.498Z,0.00
2018-11-13T04:30:54.482Z,0.00
2018-11-13T04:31:54.305Z,0.00
2018-11-13T04:32:54.194Z,0.00
2018-11-13T04:33:54.128Z,0.00
2018-11-13T04:34:54.034Z,0.00
2018-11-13T04:35:54.025Z,0.00
2018-11-13T04:36:53.876Z,0.00
2018-11-13T04:37:53.833Z,0.00
2018-11-13T04:38:53.717Z,0.00
2018-11-13T04:39:53.733Z,0.00
2018-11-13T04:40:53.559Z,0.00
2018-11-13T04:41:53.554Z,0.00
2018-11-13T04:42:53.397Z,0.00
2018-11-13T04:43:53.361Z,0.00
2018-11-13T04:44:53.234Z,0.00
2018-11-13T04:45:53.270Z,0.00
2018-11-13T04:46:53.075Z,0.00
2018-11-13T04:47:53.083Z,0.00
2018-11-13T04:48:52.915Z,0.00
2018-11-13T04:49:52.889Z,0.00
2018-11-13T04:50:52.756Z,0.00
2018-11-13T04:51:52.701Z,0.00
2018-11-13T04:52:52.598Z,0.00
2018-11-13T04:53:52.609Z,0.00
2018-11-13T04:54:52.437Z,0.00
2018-11-13T04:55:52.417Z,0.00
2018-11-13T04:56:52.280Z,0.00
2018-11-13T04:57:52.223Z,0.00
2018-11-13T04:58:52.117Z,0.00
2018-11-13T04:59:52.141Z,0.00
2018-11-13T05:00:51.959Z,0.00
2018-11-13T05:01:51.943Z,0.00
2018-11-13T05:02:51.806Z,0.00
2018-11-13T05:03:51.757Z,0.00
2018-11-13T05:04:51.641Z,0.00
2018-11-13T05:05:51.664Z,0.00
2018-11-13T05:06:51.480Z,0.00
2018-11-13T05:07:51.473Z,0.00
2018-11-13T05:08:51.319Z,0.00
2018-11-13T05:09:51.337Z,0.00
2018-11-13T05:10:51.159Z,0.00
2018-11-13T05:11:51.194Z,0.00
2018-11-13T05:12:51.007Z,0.00
2018-11-13T05:13:51.000Z,0.00
2018-11-13T05:14:50.841Z,0.00
2018-11-13T05:15:50.809Z,0.00
2018-11-13T05:16:50.679Z,0.00
2018-11-13T05:17:50.621Z,0.00
2018-11-13T05:18:50.521Z,0.00
2018-11-13T05:19:50.528Z,0.00
2018-11-13T05:20:50.362Z,0.00
2018-11-13T05:21:50.336Z,0.00
2018-11-13T05:22:50.201Z,0.00
2018-11-13T05:23:50.145Z,0.00
2018-11-13T05:24:50.046Z,0.00
2018-11-13T05:25:50.055Z,0.00
2018-11-13T05:26:49.881Z,0.00
2018-11-13T05:27:49.865Z,0.00
2018-11-13T05:28:49.728Z,0.00
2018-11-13T05:29:49.672Z,0.00
2018-11-13T05:30:49.564Z,0.00
2018-11-13T05:31:49.585Z,0.00
2018-11-13T05:32:49.400Z,0.00
2018-11-13T05:33:49.391Z,0.00
2018-11-13T05:34:49.242Z,0.00
2018-11-13T05:35:49.200Z,0.00
2018-11-13T05:36:49.083Z,0.00
2018-11-13T05:37:49.012Z,0.00
2018-11-13T05:38:48.927Z,0.00
2018-11-13T05:39:48.922Z,0.00
2018-11-13T05:40:48.765Z,0.00
2018-11-13T05:41:48.796Z,0.00
2018-11-13T05:42:48.603Z,0.00
2018-11-13T05:43:48.537Z,0.00
2018-11-13T05:44:48.449Z,0.00
2018-11-13T05:45:48.449Z,0.00
2018-11-13T05:46:48.283Z,0.00
2018-11-13T05:47:48.256Z,0.00
2018-11-13T05:48:48.122Z,0.00
2018-11-13T05:49:48.068Z,0.00
2018-11-13T05:50:47.974Z,0.00
2018-11-13T05:51:47.963Z,0.00
2018-11-13T05:52:47.806Z,0.00
2018-11-13T05:53:47.740Z,0.00
2018-11-13T05:54:47.658Z,0.00
2018-11-13T05:55:47.575Z,0.00
2018-11-13T05:56:47.485Z,0.00
2018-11-13T05:57:47.417Z,0.00
2018-11-13T05:58:47.328Z,0.00
2018-11-13T05:59:47.272Z,0.00
2018-11-13T06:00:47.169Z,0.00
2018-11-13T06:01:47.119Z,0.00
2018-11-13T06:02:47.011Z,0.00
2018-11-13T06:03:47.031Z,0.00
2018-11-13T06:04:46.847Z,0.00
2018-11-13T06:05:46.841Z,0.00
2018-11-13T06:06:46.688Z,4.00
2018-11-13T06:07:46.647Z,0.00
2018-11-13T06:08:46.529Z,0.00
2018-11-13T06:09:46.566Z,4.00
2018-11-13T06:10:46.371Z,0.00
2018-11-13T06:11:46.368Z,0.00
2018-11-13T06:12:46.210Z,0.00
2018-11-13T06:13:46.176Z,0.00
2018-11-13T06:14:46.051Z,0.00
2018-11-13T06:15:46.133Z,0.00
2018-11-13T06:16:45.895Z,4.00
2018-11-13T06:17:45.838Z,0.00
2018-11-13T06:18:45.732Z,4.00
2018-11-13T06:19:45.749Z,4.00
2018-11-13T06:20:45.569Z,8.00
2018-11-13T06:21:45.561Z,8.00
2018-11-13T06:22:45.470Z,4.00
2018-11-13T06:23:45.370Z,8.00
2018-11-13T06:24:45.255Z,4.00
2018-11-13T06:25:45.280Z,8.00
2018-11-13T06:26:45.092Z,8.00
2018-11-13T06:27:45.091Z,8.00
2018-11-13T06:28:44.933Z,8.00
2018-11-13T06:29:45.001Z,8.00
2018-11-13T06:30:44.769Z,12.00
2018-11-13T06:31:44.809Z,12.00
2018-11-13T06:32:44.612Z,16.00
2018-11-13T06:33:44.617Z,20.00
2018-11-13T06:34:44.453Z,24.00
2018-11-13T06:35:44.427Z,24.00
2018-11-13T06:36:44.294Z,28.00
2018-11-13T06:37:44.217Z,32.00
2018-11-13T06:38:44.291Z,32.00
2018-11-13T06:39:44.057Z,36.00
2018-11-13T06:40:44.054Z,36.00
2018-11-13T06:41:43.897Z,32.00
2018-11-13T06:42:43.866Z,32.00
2018-11-13T06:43:43.737Z,28.00
2018-11-13T06:44:43.776Z,28.00
2018-11-13T06:45:43.577Z,28.00
2018-11-13T06:46:43.582Z,28.00
2018-11-13T06:47:43.421Z,32.00
2018-11-13T06:48:43.392Z,28.00
2018-11-13T06:49:43.365Z,32.00
2018-11-13T06:50:43.201Z,36.00
2018-11-13T06:51:43.098Z,32.00
2018-11-13T06:52:43.115Z,36.00
2018-11-13T06:53:42.938Z,32.00
2018-11-13T06:54:42.930Z,40.00
2018-11-13T06:55:42.779Z,40.00
2018-11-13T06:56:42.733Z,44.00
2018-11-13T06:57:42.622Z,40.00
2018-11-13T06:58:42.640Z,40.00
2018-11-13T06:59:42.462Z,40.00
2018-11-13T07:00:42.453Z,44.00
2018-11-13T07:01:42.301Z,40.00
2018-11-13T07:02:42.219Z,36.00
2018-11-13T07:03:42.164Z,36.00
2018-11-13T07:04:42.065Z,40.00
2018-11-13T07:05:42.072Z,48.00
2018-11-13T07:06:41.902Z,56.00
2018-11-13T07:07:41.883Z,64.00
2018-11-13T07:08:41.744Z,64.00
2018-11-13T07:09:41.696Z,56.00
2018-11-13T07:10:41.592Z,52.00
2018-11-13T07:11:41.604Z,60.00
2018-11-13T07:12:41.425Z,68.00
2018-11-13T07:13:41.410Z,68.00
2018-11-13T07:14:41.265Z,56.00
2018-11-13T07:15:41.223Z,52.00
2018-11-13T07:16:41.104Z,44.00
2018-11-13T07:17:41.131Z,44.00
2018-11-13T07:18:40.947Z,40.00
2018-11-13T07:19:40.939Z,44.00
2018-11-13T07:20:40.786Z,40.00
2018-11-13T07:21:40.758Z,40.00
2018-11-13T07:22:40.628Z,40.00
2018-11-13T07:23:40.671Z,48.00
2018-11-13T07:24:40.474Z,52.00
2018-11-13T07:25:40.471Z,60.00
2018-11-13T07:26:40.310Z,68.00
2018-11-13T07:27:40.460Z,68.00
2018-11-13T07:28:40.150Z,72.00
2018-11-13T07:29:40.090Z,76.00
2018-11-13T07:30:39.988Z,80.00
2018-11-13T07:31:40.001Z,84.00
2018-11-13T07:32:39.838Z,84.00
2018-11-13T07:33:39.916Z,88.00
2018-11-13T07:34:39.672Z,88.00
2018-11-13T07:35:39.622Z,92.00
2018-11-13T07:36:39.517Z,88.00
2018-11-13T07:37:39.529Z,84.00
2018-11-13T07:38:39.355Z,80.00
2018-11-13T07:39:39.340Z,72.00
2018-11-13T07:40:39.203Z,68.00
2018-11-13T07:41:39.155Z,64.00
2018-11-13T07:42:39.040Z,64.00
2018-11-13T07:43:39.061Z,64.00
2018-11-13T07:44:38.879Z,56.00
2018-11-13T07:45:38.871Z,56.00
2018-11-13T07:46:38.792Z,60.00
2018-11-13T07:47:38.920Z,56.00
2018-11-13T07:48:38.561Z,60.00
2018-11-13T07:49:38.476Z,60.00
2018-11-13T07:50:38.494Z,60.00
2018-11-13T07:51:38.322Z,60.00
2018-11-13T07:52:38.300Z,56.00
2018-11-13T07:53:38.176Z,52.00
2018-11-13T07:54:38.110Z,56.00
2018-11-13T07:55:38.000Z,60.00
2018-11-13T07:56:38.022Z,56.00
2018-11-13T07:57:37.843Z,56.00
2018-11-13T07:58:37.891Z,52.00
2018-11-13T07:59:37.684Z,48.00
2018-11-13T08:00:37.640Z,40.00
2018-11-13T08:01:37.528Z,40.00
2018-11-13T08:02:37.560Z,44.00
2018-11-13T08:03:37.378Z,40.00
2018-11-13T08:04:37.362Z,40.00
2018-11-13T08:05:37.217Z,40.00
2018-11-13T08:06:37.218Z,32.00
2018-11-13T08:07:37.047Z,28.00
2018-11-13T08:08:37.085Z,32.00
2018-11-13T08:09:36.889Z,32.00
2018-11-13T08:10:36.890Z,28.00
2018-11-13T08:11:36.730Z,28.00
2018-11-13T08:12:36.739Z,28.00
2018-11-13T08:13:36.632Z,28.00
2018-11-13T08:14:36.610Z,32.00
2018-11-13T08:15:36.422Z,28.00
2018-11-13T08:16:36.462Z,32.00
2018-11-13T08:17:36.254Z,32.00
2018-11-13T08:18:36.226Z,32.00
2018-11-13T08:19:36.093Z,40.00
2018-11-13T08:20:36.039Z,44.00
2018-11-13T08:21:35.934Z,60.00
2018-11-13T08:22:35.854Z,76.00
2018-11-13T08:23:35.899Z,80.00
2018-11-13T08:24:35.696Z,80.00
2018-11-13T08:25:35.672Z,76.00
2018-11-13T08:26:35.537Z,76.00
2018-11-13T08:27:35.597Z,68.00
2018-11-13T08:28:35.391Z,56.00
2018-11-13T08:29:35.404Z,48.00
2018-11-13T08:30:35.219Z,44.00
2018-11-13T08:31:35.193Z,40.00
2018-11-13T08:32:35.061Z,36.00
2018-11-13T08:33:35.006Z,36.00
2018-11-13T08:34:34.903Z,32.00
2018-11-13T08:35:34.915Z,32.00
2018-11-13T08:36:34.742Z,36.00
2018-11-13T08:37:34.718Z,36.00
2018-11-13T08:38:34.584Z,32.00
2018-11-13T08:39:34.531Z,32.00
2018-11-13T08:40:34.423Z,32.00
2018-11-13T08:41:34.442Z,36.00
2018-11-13T08:42:34.265Z,40.00
2018-11-13T08:43:34.186Z,44.00
2018-11-13T08:44:34.156Z,40.00
2018-11-13T08:45:34.028Z,40.00
2018-11-13T08:46:34.068Z,44.00
2018-11-13T08:47:33.869Z,44.00
2018-11-13T08:48:33.881Z,40.00
2018-11-13T08:49:33.710Z,40.00
2018-11-13T08:50:33.725Z,40.00
2018-11-13T08:51:33.555Z,44.00
2018-11-13T08:52:33.494Z,52.00
2018-11-13T08:53:33.393Z,56.00
2018-11-13T08:54:33.315Z,52.00
2018-11-13T08:55:33.313Z,56.00
2018-11-13T08:56:33.155Z,60.00
2018-11-13T08:57:33.124Z,64.00
2018-11-13T08:58:33.116Z,68.00
2018-11-13T08:59:33.132Z,68.00
2018-11-13T09:00:32.841Z,64.00
2018-11-13T09:01:32.839Z,64.00
2018-11-13T09:02:32.679Z,64.00
2018-11-13T09:03:32.652Z,64.00
2018-11-13T09:04:32.518Z,64.00
2018-11-13T09:05:32.563Z,64.00
2018-11-13T09:06:32.361Z,64.00
2018-11-13T09:07:32.369Z,60.00
2018-11-13T09:08:32.203Z,60.00
2018-11-13T09:09:32.179Z,64.00
2018-11-13T09:10:32.049Z,64.00
2018-11-13T09:11:32.054Z,68.00
2018-11-13T09:12:31.984Z,72.00
2018-11-13T09:13:31.898Z,72.00
2018-11-13T09:14:31.730Z,76.00
2018-11-13T09:15:31.708Z,76.00
2018-11-13T09:16:31.575Z,84.00
2018-11-13T09:17:31.518Z,80.00
2018-11-13T09:18:31.412Z,76.00
2018-11-13T09:19:31.619Z,76.00
2018-11-13T09:20:31.249Z,76.00
2018-11-13T09:21:31.241Z,80.00
2018-11-13T09:22:31.100Z,80.00
2018-11-13T09:23:31.050Z,76.00
2018-11-13T09:24:30.936Z,72.00
2018-11-13T09:25:30.961Z,68.00
2018-11-13T09:26:30.780Z,68.00
2018-11-13T09:27:30.739Z,68.00
2018-11-13T09:28:30.619Z,68.00
2018-11-13T09:29:30.581Z,68.00
2018-11-13T09:30:30.638Z,68.00
2018-11-13T09:31:30.585Z,68.00
2018-11-13T09:32:30.305Z,72.00
2018-11-13T09:33:30.265Z,72.00
2018-11-13T09:34:30.147Z,72.00
2018-11-13T09:35:30.107Z,72.00
2018-11-13T09:36:29.987Z,72.00
2018-11-13T09:37:30.092Z,72.00
2018-11-13T09:38:29.830Z,76.00
2018-11-13T09:39:29.827Z,80.00
2018-11-13T09:40:29.676Z,84.00
2018-11-13T09:41:29.634Z,88.00
2018-11-13T09:42:29.516Z,88.00
2018-11-13T09:43:29.547Z,88.00
2018-11-13T09:44:29.358Z,84.00
2018-11-13T09:45:29.360Z,88.00
2018-11-13T09:46:29.251Z,88.00
2018-11-13T09:47:29.281Z,92.00
2018-11-13T09:48:29.038Z,100.00
2018-11-13T09:49:29.074Z,104.00
2018-11-13T09:50:28.932Z,108.00
2018-11-13T09:51:28.887Z,108.00
2018-11-13T09:52:28.724Z,112.00
2018-11-13T09:53:28.729Z,124.00
2018-11-13T09:54:28.567Z,128.00
2018-11-13T09:55:28.650Z,132.00
2018-11-13T09:56:28.476Z,124.00
2018-11-13T09:57:28.417Z,112.00
2018-11-13T09:58:28.488Z,100.00
2018-11-13T09:59:28.223Z,100.00
2018-11-13T10:00:28.299Z,100.00
2018-11-13T10:01:28.460Z,100.00
2018-11-13T10:02:28.738Z,100.00
2018-11-13T10:03:28.562Z,96.00
2018-11-13T10:04:28.458Z,92.00
2018-11-13T10:05:27.844Z,92.00
2018-11-13T10:06:27.621Z,92.00
2018-11-13T10:07:27.663Z,96.00
2018-11-13T10:08:27.468Z,100.00
2018-11-13T10:09:27.476Z,104.00
2018-11-13T10:10:27.334Z,108.00
2018-11-13T10:11:27.284Z,116.00
2018-11-13T10:12:27.150Z,128.00
2018-11-13T10:13:27.195Z,132.00
2018-11-13T10:14:26.997Z,140.00
2018-11-13T10:15:26.915Z,136.00
2018-11-13T10:16:26.836Z,132.00
2018-11-13T10:17:26.876Z,128.00
2018-11-13T10:18:26.803Z,120.00
2018-11-13T10:19:26.723Z,116.00
2018-11-13T10:20:26.523Z,124.00
2018-11-13T10:21:26.532Z,132.00
2018-11-13T10:22:26.367Z,144.00
2018-11-13T10:23:26.341Z,148.00
2018-11-13T10:24:26.207Z,148.00
2018-11-13T10:25:26.151Z,148.00
2018-11-13T10:26:26.103Z,144.00
2018-11-13T10:27:26.063Z,140.00
2018-11-13T10:28:25.892Z,144.00
2018-11-13T10:29:25.870Z,148.00
2018-11-13T10:30:25.733Z,152.00
2018-11-13T10:31:25.680Z,160.00
2018-11-13T10:32:25.579Z,176.00
2018-11-13T10:33:25.591Z,188.00
2018-11-13T10:34:25.421Z,196.00
2018-11-13T10:35:25.342Z,208.00
2018-11-13T10:36:25.304Z,220.00
2018-11-13T10:37:25.185Z,220.00
2018-11-13T10:38:25.216Z,220.00
2018-11-13T10:39:25.029Z,216.00
2018-11-13T10:40:25.143Z,220.00
2018-11-13T10:41:24.922Z,232.00
2018-11-13T10:42:24.834Z,248.00
2018-11-13T10:43:24.713Z,248.00
2018-11-13T10:44:24.746Z,248.00
2018-11-13T10:45:24.560Z,272.00
2018-11-13T10:46:24.555Z,308.00
2018-11-13T10:47:24.400Z,332.00
2018-11-13T10:48:24.367Z,316.00
2018-11-13T10:49:24.241Z,288.00
2018-11-13T10:50:24.344Z,284.00
2018-11-13T10:51:24.087Z,284.00
2018-11-13T10:52:24.084Z,276.00
2018-11-13T10:53:23.931Z,264.00
2018-11-13T10:54:23.893Z,248.00
2018-11-13T10:55:23.774Z,232.00
2018-11-13T10:56:23.832Z,220.00
2018-11-13T10:57:23.616Z,208.00
2018-11-13T10:58:23.613Z,204.00
2018-11-13T10:59:23.458Z,212.00
2018-11-13T11:00:23.422Z,220.00
2018-11-13T11:01:23.303Z,232.00
2018-11-13T11:02:23.342Z,248.00
2018-11-13T11:03:23.148Z,264.00
2018-11-13T11:04:23.124Z,268.00
2018-11-13T11:05:22.987Z,244.00
2018-11-13T11:06:22.952Z,204.00
2018-11-13T11:07:22.829Z,176.00
2018-11-13T11:08:22.938Z,156.00
2018-11-13T11:09:22.678Z,156.00
2018-11-13T11:10:22.673Z,172.00
2018-11-13T11:11:22.558Z,204.00
2018-11-13T11:12:22.481Z,236.00
2018-11-13T11:13:22.544Z,252.00
2018-11-13T11:14:22.392Z,252.00
2018-11-13T11:15:22.206Z,244.00
2018-11-13T11:16:22.127Z,244.00
2018-11-13T11:17:22.047Z,252.00
2018-11-13T11:18:22.012Z,268.00
2018-11-13T11:19:21.928Z,280.00
2018-11-13T11:20:21.922Z,292.00
2018-11-13T11:21:21.735Z,304.00
2018-11-13T11:22:21.736Z,324.00
2018-11-13T11:23:21.593Z,332.00
2018-11-13T11:24:21.556Z,332.00
2018-11-13T11:25:21.576Z,336.00
2018-11-13T11:26:21.525Z,332.00
2018-11-13T11:27:21.267Z,336.00
2018-11-13T11:28:21.262Z,332.00
2018-11-13T11:29:21.107Z,316.00
2018-11-13T11:30:21.068Z,296.00
2018-11-13T11:31:20.953Z,284.00
2018-11-13T11:32:20.978Z,276.00
2018-11-13T11:33:20.796Z,280.00
2018-11-13T11:34:20.790Z,284.00
2018-11-13T11:35:20.639Z,284.00
2018-11-13T11:36:20.598Z,284.00
2018-11-13T11:37:20.481Z,288.00
2018-11-13T11:38:20.512Z,300.00
2018-11-13T11:39:20.451Z,308.00
2018-11-13T11:40:20.319Z,316.00
2018-11-13T11:41:20.169Z,316.00
2018-11-13T11:42:20.129Z,324.00
2018-11-13T11:43:20.014Z,332.00
2018-11-13T11:44:20.082Z,332.00
2018-11-13T11:45:19.862Z,320.00
2018-11-13T11:46:19.778Z,300.00
2018-11-13T11:47:19.754Z,272.00
2018-11-13T11:48:19.621Z,244.00
2018-11-13T11:49:19.665Z,236.00
2018-11-13T11:50:19.468Z,232.00
2018-11-13T11:51:19.474Z,220.00
2018-11-13T11:52:19.310Z,228.00
2018-11-13T11:53:19.287Z,228.00
2018-11-13T11:54:19.152Z,236.00
2018-11-13T11:55:19.193Z,248.00
2018-11-13T11:56:18.997Z,260.00
2018-11-13T11:57:19.004Z,264.00
2018-11-13T11:58:18.843Z,272.00
2018-11-13T11:59:18.812Z,272.00
2018-11-13T12:00:18.685Z,252.00
2018-11-13T12:01:18.727Z,236.00
2018-11-13T12:02:18.566Z,232.00
2018-11-13T12:03:18.532Z,232.00
2018-11-13T12:04:18.371Z,236.00
2018-11-13T12:05:18.346Z,232.00
2018-11-13T12:06:18.217Z,220.00
2018-11-13T12:07:18.253Z,208.00
2018-11-13T12:08:18.067Z,200.00
2018-11-13T12:09:18.062Z,188.00
2018-11-13T12:10:17.900Z,180.00
2018-11-13T12:11:17.879Z,176.00
2018-11-13T12:12:17.809Z,180.00
2018-11-13T12:13:17.781Z,192.00
2018-11-13T12:14:17.590Z,200.00
2018-11-13T12:15:17.590Z,196.00
2018-11-13T12:16:17.433Z,188.00
2018-11-13T12:17:17.408Z,180.00
2018-11-13T12:18:17.278Z,168.00
2018-11-13T12:19:17.217Z,152.00
2018-11-13T12:20:17.123Z,148.00
2018-11-13T12:21:17.120Z,140.00
2018-11-13T12:22:16.966Z,140.00
2018-11-13T12:23:17.032Z,140.00
2018-11-13T12:24:16.809Z,144.00
2018-11-13T12:25:16.840Z,140.00
2018-11-13T12:26:16.655Z,140.00
2018-11-13T12:27:16.648Z,140.00
2018-11-13T12:28:16.498Z,136.00
2018-11-13T12:29:16.564Z,132.00
2018-11-13T12:30:16.343Z,144.00
2018-11-13T12:31:16.371Z,152.00
2018-11-13T12:32:16.189Z,164.00
2018-11-13T12:33:16.179Z,176.00
2018-11-13T12:34:16.030Z,180.00
2018-11-13T12:35:16.090Z,180.00
2018-11-13T12:36:15.873Z,188.00
2018-11-13T12:37:15.899Z,200.00
2018-11-13T12:38:15.718Z,200.00
2018-11-13T12:39:15.715Z,204.00
2018-11-13T12:40:15.561Z,204.00
2018-11-13T12:41:15.630Z,208.00
2018-11-13T12:42:15.407Z,208.00
2018-11-13T12:43:15.434Z,196.00
2018-11-13T12:44:15.247Z,180.00
2018-11-13T12:45:15.342Z,152.00
2018-11-13T12:46:15.094Z,136.00
2018-11-13T12:47:15.150Z,128.00
2018-11-13T12:48:14.935Z,128.00
2018-11-13T12:49:15.197Z,140.00
2018-11-13T12:50:14.780Z,136.00
2018-11-13T12:51:14.871Z,128.00
2018-11-13T12:52:14.626Z,148.00
2018-11-13T12:53:14.681Z,172.00
2018-11-13T12:54:14.467Z,188.00
2018-11-13T12:55:14.495Z,180.00
2018-11-13T12:56:14.335Z,156.00
2018-11-13T12:57:14.240Z,132.00
2018-11-13T12:58:14.302Z,120.00